createdAt,value
2017-12-04T00:01:08.831Z,66.40
2017-12-04T00:03:36.340Z,68.67
2017-12-04T00:06:03.839Z,68.37
2017-12-04T00:08:32.069Z,64.77
2017-12-04T00:10:59.672Z,74.30
2017-12-04T00:13:27.949Z,72.53
2017-12-04T00:15:56.182Z,52.90
2017-12-04T00:18:23.700Z,79.87
2017-12-04T00:20:51.240Z,78.73
2017-12-04T00:23:18.755Z,69.93
2017-12-04T00:25:46.280Z,70.63
2017-12-04T00:28:13.713Z,68.43
2017-12-04T00:30:41.161Z,66.70
2017-12-04T00:33:08.728Z,76.87
2017-12-04T00:35:36.190Z,76.67
2017-12-04T00:38:03.686Z,77.67
2017-12-04T00:40:31.173Z,72.20
2017-12-04T00:42:59.454Z,82.57
2017-12-04T00:45:26.940Z,62.10
2017-12-04T00:47:54.437Z,55.73
2017-12-04T00:50:21.955Z,68.47
2017-12-04T00:52:49.435Z,71.97
2017-12-04T00:55:16.973Z,60.00
2017-12-04T00:57:44.449Z,68.87
2017-12-04T01:00:11.955Z,75.23
2017-12-04T01:02:39.417Z,83.17
2017-12-04T01:05:07.022Z,102.90
2017-12-04T01:07:34.436Z,62.00
2017-12-04T01:10:01.985Z,59.90
2017-12-04T01:12:29.466Z,91.67
2017-12-04T01:14:56.913Z,61.87
2017-12-04T01:17:24.387Z,58.47
2017-12-04T01:19:51.889Z,54.97
2017-12-04T01:22:20.136Z,72.83
2017-12-04T01:24:47.640Z,88.77
2017-12-04T01:27:15.091Z,73.93
2017-12-04T01:29:43.324Z,64.23
2017-12-04T01:32:10.883Z,73.33
2017-12-04T01:34:38.321Z,59.43
2017-12-04T01:37:05.913Z,67.70
2017-12-04T01:39:33.400Z,48.23
2017-12-04T01:42:00.906Z,61.50
2017-12-04T01:44:28.378Z,60.07
2017-12-04T01:46:55.856Z,54.40
2017-12-04T01:49:23.342Z,61.63
2017-12-04T01:51:50.877Z,60.53
2017-12-04T01:54:18.315Z,49.80
2017-12-04T01:56:45.817Z,56.53
2017-12-04T01:59:13.277Z,49.73
2017-12-04T02:01:40.802Z,69.40
2017-12-04T02:04:08.277Z,71.60
2017-12-04T02:06:35.812Z,63.47
2017-12-04T02:09:03.261Z,60.47
2017-12-04T02:11:30.828Z,57.17
2017-12-04T02:13:58.297Z,58.67
2017-12-04T02:16:25.803Z,59.07
2017-12-04T02:18:53.257Z,56.00
2017-12-04T02:21:20.755Z,75.00
2017-12-04T02:23:48.217Z,64.70
2017-12-04T02:26:15.702Z,67.30
2017-12-04T02:28:43.234Z,59.57
2017-12-04T02:31:10.774Z,54.60
2017-12-04T02:33:39.017Z,69.70
2017-12-04T02:36:06.452Z,70.57
2017-12-04T02:38:33.951Z,60.43
2017-12-04T02:41:02.169Z,50.17
2017-12-04T02:43:29.644Z,43.23
2017-12-04T02:45:57.117Z,51.47
2017-12-04T02:48:24.667Z,53.30
2017-12-04T02:50:52.150Z,50.10
2017-12-04T02:53:19.647Z,51.37
2017-12-04T02:55:47.146Z,64.40
2017-12-04T02:58:14.618Z,50.83
2017-12-04T03:00:42.096Z,58.97
2017-12-04T03:03:09.590Z,45.63
2017-12-04T03:05:37.796Z,54.17
2017-12-04T03:08:05.301Z,53.93
2017-12-04T03:10:32.762Z,52.03
2017-12-04T03:13:00.225Z,67.70
2017-12-04T03:15:27.720Z,54.63
2017-12-04T03:17:55.201Z,66.80
2017-12-04T03:20:22.711Z,46.00
2017-12-04T03:22:50.177Z,61.13
2017-12-04T03:25:17.666Z,58.27
2017-12-04T03:27:45.118Z,52.17
2017-12-04T03:30:12.600Z,54.43
2017-12-04T03:32:40.876Z,53.43
2017-12-04T03:35:08.338Z,49.10
2017-12-04T03:37:35.920Z,66.90
2017-12-04T03:40:04.152Z,62.83
2017-12-04T03:42:31.620Z,58.30
2017-12-04T03:44:59.118Z,46.27
2017-12-04T03:47:27.350Z,48.63
2017-12-04T03:49:54.839Z,44.50
2017-12-04T03:52:22.323Z,49.63
2017-12-04T03:54:50.626Z,61.27
2017-12-04T03:57:18.048Z,57.27
2017-12-04T03:59:45.592Z,53.10
2017-12-04T04:02:13.040Z,50.50
2017-12-04T04:04:40.496Z,45.37
2017-12-04T04:07:08.020Z,51.90
2017-12-04T04:09:36.268Z,44.43
2017-12-04T04:12:03.714Z,48.27
2017-12-04T04:14:31.184Z,40.63
2017-12-04T04:16:58.718Z,45.37
2017-12-04T04:19:26.137Z,47.20
2017-12-04T04:21:53.625Z,36.40
2017-12-04T04:24:21.891Z,39.73
2017-12-04T04:26:50.172Z,46.20
2017-12-04T04:29:18.466Z,39.07
2017-12-04T04:31:46.667Z,42.90
2017-12-04T04:34:14.124Z,41.10
2017-12-04T04:36:41.628Z,36.60
2017-12-04T04:39:09.125Z,39.50
2017-12-04T04:41:37.449Z,51.53
2017-12-04T04:44:04.921Z,50.70
2017-12-04T04:46:32.419Z,43.03
2017-12-04T04:48:59.905Z,43.20
2017-12-04T04:51:27.373Z,52.57
2017-12-04T04:53:54.890Z,45.40
2017-12-04T04:56:22.341Z,58.60
2017-12-04T04:58:49.808Z,43.87
2017-12-04T05:01:17.301Z,41.43
2017-12-04T05:03:44.730Z,51.73
2017-12-04T05:06:12.221Z,89.87
2017-12-04T05:08:39.732Z,55.27
2017-12-04T05:11:07.950Z,57.90
2017-12-04T05:13:35.396Z,62.87
2017-12-04T05:16:03.008Z,52.03
2017-12-04T05:18:30.421Z,51.07
2017-12-04T05:20:57.877Z,46.70
2017-12-04T05:23:25.477Z,59.50
2017-12-04T05:25:52.932Z,44.10
2017-12-04T05:28:20.425Z,41.53
2017-12-04T05:30:47.906Z,41.90
2017-12-04T05:33:15.477Z,53.80
2017-12-04T05:35:42.921Z,54.57
2017-12-04T05:38:10.404Z,52.07
2017-12-04T05:40:37.902Z,48.90
2017-12-04T05:43:05.368Z,47.00
2017-12-04T05:45:32.831Z,51.17
2017-12-04T05:48:00.360Z,41.83
2017-12-04T05:50:27.808Z,50.40
2017-12-04T05:52:55.317Z,50.03
2017-12-04T05:55:22.785Z,37.67
2017-12-04T05:57:50.347Z,54.30
2017-12-04T06:00:17.846Z,36.80
2017-12-04T06:02:46.058Z,40.50
2017-12-04T06:05:13.506Z,47.33
2017-12-04T06:07:41.015Z,44.80
2017-12-04T06:10:08.422Z,42.37
2017-12-04T06:12:35.882Z,47.97
2017-12-04T06:15:03.335Z,40.17
2017-12-04T06:17:31.599Z,52.80
2017-12-04T06:19:59.108Z,45.23
2017-12-04T06:22:26.560Z,54.30
2017-12-04T06:24:54.050Z,39.53
2017-12-04T06:27:21.507Z,51.43
2017-12-04T06:29:49.079Z,43.30
2017-12-04T06:32:16.551Z,42.83
2017-12-04T06:34:44.075Z,36.33
2017-12-04T06:37:12.303Z,60.40
2017-12-04T06:39:39.809Z,49.37
2017-12-04T06:42:07.297Z,38.87
2017-12-04T06:44:34.788Z,42.97
2017-12-04T06:47:02.267Z,39.07
2017-12-04T06:49:29.741Z,52.50
2017-12-04T06:51:57.987Z,44.70
2017-12-04T06:54:25.475Z,45.90
2017-12-04T06:56:52.917Z,52.47
2017-12-04T06:59:20.399Z,51.77
2017-12-04T07:01:47.978Z,48.90
2017-12-04T07:04:15.379Z,41.97
2017-12-04T07:06:42.846Z,58.40
2017-12-04T07:09:10.332Z,51.13
2017-12-04T07:11:37.832Z,58.77
2017-12-04T07:14:05.298Z,41.63
2017-12-04T07:16:32.806Z,43.20
2017-12-04T07:19:00.293Z,45.20
2017-12-04T07:21:27.836Z,42.30
2017-12-04T07:23:55.279Z,47.60
2017-12-04T07:26:22.712Z,42.17
2017-12-04T07:28:50.199Z,31.40
2017-12-04T07:31:18.442Z,42.60
2017-12-04T07:33:45.897Z,31.63
2017-12-04T07:36:14.206Z,46.70
2017-12-04T07:38:41.657Z,41.37
2017-12-04T07:41:09.166Z,27.47
2017-12-04T07:43:36.656Z,29.07
2017-12-04T07:46:04.300Z,36.70
2017-12-04T07:48:31.791Z,22.93
2017-12-04T07:51:00.021Z,23.50
2017-12-04T07:53:27.525Z,34.53
2017-12-04T07:55:54.980Z,37.50
2017-12-04T07:58:22.469Z,22.87
2017-12-04T08:00:50.752Z,22.43
2017-12-04T08:03:19.045Z,30.60
2017-12-04T08:05:46.523Z,32.20
2017-12-04T08:08:14.043Z,26.47
2017-12-04T08:10:41.470Z,25.90
2017-12-04T08:13:09.077Z,20.47
2017-12-04T08:15:36.527Z,44.13
2017-12-04T08:18:04.039Z,34.93
2017-12-04T08:20:31.514Z,24.30
2017-12-04T08:22:59.060Z,33.17
2017-12-04T08:25:26.527Z,49.93
2017-12-04T08:27:54.125Z,34.97
2017-12-04T08:30:21.616Z,31.27
2017-12-04T08:32:49.095Z,25.60
2017-12-04T08:35:17.394Z,29.20
2017-12-04T08:37:45.643Z,27.00
2017-12-04T08:40:13.108Z,24.10
2017-12-04T08:42:41.350Z,19.90
2017-12-04T08:45:08.841Z,27.77
2017-12-04T08:47:36.329Z,23.03
2017-12-04T08:50:03.795Z,22.10
2017-12-04T08:52:31.332Z,19.80
2017-12-04T08:54:58.761Z,27.10
2017-12-04T08:57:26.300Z,21.77
2017-12-04T08:59:53.737Z,19.93
2017-12-04T09:02:22.023Z,41.27
2017-12-04T09:04:49.507Z,25.23
2017-12-04T09:07:16.973Z,18.70
2017-12-04T09:09:44.439Z,19.50
2017-12-04T09:12:11.926Z,18.87
2017-12-04T09:14:39.417Z,12.43
2017-12-04T09:17:06.899Z,16.00
2017-12-04T09:19:35.131Z,14.60
2017-12-04T09:22:02.704Z,31.27
2017-12-04T09:24:30.139Z,10.23
2017-12-04T09:26:57.690Z,6.80
2017-12-04T09:29:25.892Z,27.80
2017-12-04T09:31:53.375Z,11.37
2017-12-04T09:34:20.834Z,23.80
2017-12-04T09:36:48.286Z,14.13
2017-12-04T09:39:15.775Z,30.30
2017-12-04T09:41:43.223Z,15.67
2017-12-04T09:44:10.694Z,8.77
2017-12-04T09:46:38.161Z,7.50
2017-12-04T09:49:05.592Z,6.37
2017-12-04T09:51:33.088Z,8.37
2017-12-04T09:54:00.542Z,11.80
2017-12-04T09:56:28.068Z,16.17
2017-12-04T09:58:55.529Z,15.63
2017-12-04T10:01:23.020Z,18.83
2017-12-04T10:03:50.493Z,11.70
2017-12-04T10:06:18.021Z,20.33
2017-12-04T10:08:45.460Z,12.03
2017-12-04T10:11:12.997Z,17.63
2017-12-04T10:13:40.455Z,24.90
2017-12-04T10:16:08.733Z,21.97
2017-12-04T10:18:36.268Z,17.33
2017-12-04T10:21:03.756Z,19.20
2017-12-04T10:23:31.172Z,18.57
2017-12-04T10:25:58.790Z,20.77
2017-12-04T10:28:26.260Z,17.03
2017-12-04T10:30:53.728Z,33.33
2017-12-04T10:33:21.210Z,18.97
2017-12-04T10:35:48.672Z,11.93
2017-12-04T10:38:16.181Z,13.97
2017-12-04T10:40:43.782Z,20.83
2017-12-04T10:43:11.210Z,9.67
2017-12-04T10:45:38.700Z,14.90
2017-12-04T10:48:06.951Z,15.53
2017-12-04T10:50:34.438Z,6.33
2017-12-04T10:53:01.970Z,7.47
2017-12-04T10:55:29.478Z,7.93
2017-12-04T10:57:56.956Z,9.93
2017-12-04T11:00:24.411Z,13.10
2017-12-04T11:02:51.954Z,11.17
2017-12-04T11:05:20.286Z,8.03
2017-12-04T11:07:47.712Z,19.90
2017-12-04T11:10:15.977Z,10.77
2017-12-04T11:12:44.211Z,10.93
2017-12-04T11:15:11.679Z,19.60
2017-12-04T11:17:39.133Z,9.53
2017-12-04T11:20:06.694Z,18.67
2017-12-04T11:22:34.115Z,22.80
2017-12-04T11:25:02.390Z,11.20
2017-12-04T11:27:30.633Z,18.60
2017-12-04T11:29:58.141Z,19.60
2017-12-04T11:32:25.639Z,9.87
2017-12-04T11:34:53.897Z,21.67
2017-12-04T11:37:22.158Z,13.40
2017-12-04T11:39:49.570Z,6.33
2017-12-04T11:42:17.107Z,11.03
2017-12-04T11:44:44.577Z,25.77
2017-12-04T11:47:12.050Z,10.00
2017-12-04T11:49:39.544Z,10.03
2017-12-04T11:52:06.990Z,12.07
2017-12-04T11:54:34.519Z,16.80
2017-12-04T11:57:01.976Z,5.27
2017-12-04T11:59:29.557Z,6.83
2017-12-04T12:01:57.774Z,14.73
2017-12-04T12:04:25.268Z,11.47
2017-12-04T12:06:53.550Z,13.70
2017-12-04T12:09:21.114Z,13.47
2017-12-04T12:11:49.359Z,11.70
2017-12-04T12:14:16.812Z,15.70
2017-12-04T12:16:44.347Z,11.57
2017-12-04T12:19:11.807Z,8.80
2017-12-04T12:21:39.278Z,7.47
2017-12-04T12:24:06.751Z,10.43
2017-12-04T12:26:34.202Z,14.27
2017-12-04T12:29:01.788Z,10.53
2017-12-04T12:31:29.219Z,9.67
2017-12-04T12:33:56.864Z,14.70
2017-12-04T12:36:25.189Z,7.57
2017-12-04T12:38:52.648Z,6.30
2017-12-04T12:41:20.182Z,7.77
2017-12-04T12:43:47.654Z,7.10
2017-12-04T12:46:15.137Z,3.90
2017-12-04T12:48:42.621Z,6.73
2017-12-04T12:51:10.093Z,6.63
2017-12-04T12:53:37.620Z,4.23
2017-12-04T12:56:05.808Z,7.30
2017-12-04T12:58:33.402Z,10.20
2017-12-04T13:01:00.818Z,9.57
2017-12-04T13:03:28.302Z,9.60
2017-12-04T13:05:55.797Z,4.57
2017-12-04T13:08:23.353Z,6.23
2017-12-04T13:10:50.808Z,4.00
2017-12-04T13:13:18.307Z,9.60
2017-12-04T13:15:45.903Z,4.17
2017-12-04T13:18:13.418Z,5.23
2017-12-04T13:20:41.053Z,8.30
2017-12-04T13:23:08.583Z,7.00
2017-12-04T13:25:36.079Z,6.90
2017-12-04T13:28:03.596Z,4.73
2017-12-04T13:30:31.048Z,7.97
2017-12-04T13:32:59.329Z,4.53
2017-12-04T13:35:27.612Z,7.10
2017-12-04T13:37:55.852Z,2.90
2017-12-04T13:40:23.452Z,3.93
2017-12-04T13:42:50.896Z,1.80
2017-12-04T13:45:18.433Z,3.87
2017-12-04T13:47:45.918Z,2.33
2017-12-04T13:50:13.386Z,11.37
2017-12-04T13:52:40.871Z,14.10
2017-12-04T13:55:08.312Z,5.07
2017-12-04T13:57:35.843Z,4.80
2017-12-04T14:00:04.214Z,9.90
2017-12-04T14:02:31.704Z,4.47
2017-12-04T14:04:59.268Z,4.97
2017-12-04T14:07:26.852Z,3.83
2017-12-04T14:09:54.737Z,6.90
2017-12-04T14:12:22.424Z,5.40
2017-12-04T14:14:50.836Z,9.67
2017-12-04T14:17:19.214Z,5.13
2017-12-04T14:19:47.463Z,5.20
2017-12-04T14:22:15.829Z,8.73
2017-12-04T14:24:43.309Z,4.03
2017-12-04T14:27:10.746Z,6.63
2017-12-04T14:29:38.345Z,5.47
2017-12-04T14:32:05.831Z,10.10
2017-12-04T14:34:33.237Z,10.70
2017-12-04T14:37:01.553Z,11.30
2017-12-04T14:39:29.045Z,5.37
2017-12-04T14:41:56.590Z,8.23
2017-12-04T14:44:24.088Z,5.97
2017-12-04T14:46:51.526Z,9.30
2017-12-04T14:49:19.760Z,6.50
2017-12-04T14:51:47.994Z,6.57
2017-12-04T14:54:15.488Z,25.17
2017-12-04T14:56:42.987Z,10.13
2017-12-04T14:59:10.486Z,16.33
2017-12-04T15:01:38.029Z,7.87
2017-12-04T15:04:05.476Z,11.13
2017-12-04T15:06:32.981Z,10.73
2017-12-04T15:09:00.470Z,7.80
2017-12-04T15:11:28.742Z,12.00
2017-12-04T15:13:56.204Z,6.60
2017-12-04T15:16:23.746Z,15.07
2017-12-04T15:18:51.296Z,17.77
2017-12-04T15:21:18.819Z,7.67
2017-12-04T15:23:46.268Z,21.70
2017-12-04T15:26:13.733Z,8.63
2017-12-04T15:28:41.219Z,8.60
2017-12-04T15:31:08.673Z,5.77
2017-12-04T15:33:36.905Z,7.77
2017-12-04T15:36:04.407Z,9.50
2017-12-04T15:38:31.847Z,6.63
2017-12-04T15:40:59.353Z,10.83
2017-12-04T15:43:26.833Z,10.27
2017-12-04T15:45:54.401Z,8.33
2017-12-04T15:48:21.891Z,4.57
2017-12-04T15:50:49.351Z,7.93
2017-12-04T15:53:17.007Z,4.03
2017-12-04T15:55:44.459Z,6.23
2017-12-04T15:58:11.960Z,8.23
2017-12-04T16:00:39.510Z,10.67
2017-12-04T16:03:07.015Z,5.97
2017-12-04T16:05:34.455Z,3.07
2017-12-04T16:08:01.918Z,18.07
2017-12-04T16:10:29.431Z,9.13
2017-12-04T16:12:56.919Z,4.63
2017-12-04T16:15:24.427Z,29.20
2017-12-04T16:17:52.653Z,29.23
2017-12-04T16:20:20.126Z,15.17
2017-12-04T16:22:47.592Z,11.53
2017-12-04T16:25:15.059Z,9.93
2017-12-04T16:27:42.603Z,10.10
2017-12-04T16:30:10.094Z,10.13
2017-12-04T16:32:37.617Z,12.70
2017-12-04T16:35:05.088Z,8.80
2017-12-04T16:37:32.600Z,9.70
2017-12-04T16:40:00.862Z,6.47
2017-12-04T16:42:28.331Z,14.33
2017-12-04T16:44:55.800Z,8.97
2017-12-04T16:47:23.318Z,7.97
2017-12-04T16:49:50.850Z,15.27
2017-12-04T16:52:18.386Z,11.40
2017-12-04T16:54:45.988Z,7.67
2017-12-04T16:57:13.613Z,5.20
2017-12-04T16:59:41.029Z,9.77
2017-12-04T17:02:09.368Z,10.23
2017-12-04T17:04:36.891Z,10.80
2017-12-04T17:07:05.141Z,24.50
2017-12-04T17:09:32.708Z,16.07
2017-12-04T17:12:00.218Z,13.23
2017-12-04T17:14:27.757Z,15.53
2017-12-04T17:16:55.260Z,6.50
2017-12-04T17:19:23.484Z,6.70
2017-12-04T17:21:50.979Z,56.90
2017-12-04T17:24:18.555Z,23.50
2017-12-04T17:26:46.044Z,22.03
2017-12-04T17:29:13.628Z,23.50
2017-12-04T17:31:41.302Z,18.87
2017-12-04T17:34:09.571Z,20.70
2017-12-04T17:36:37.037Z,24.50
2017-12-04T17:39:04.526Z,59.80
2017-12-04T17:41:32.034Z,94.03
2017-12-04T17:44:00.255Z,162.13
2017-12-04T17:46:28.724Z,47.80
2017-12-04T17:48:56.178Z,51.43
2017-12-04T17:51:23.645Z,31.37
2017-12-04T17:53:51.179Z,32.90
2017-12-04T17:56:18.632Z,12.57
2017-12-04T17:58:46.090Z,19.10
2017-12-04T18:01:13.572Z,15.70
2017-12-04T18:03:41.982Z,24.77
2017-12-04T18:06:10.239Z,27.60
2017-12-04T18:08:38.507Z,16.50
2017-12-04T18:11:05.932Z,17.90
2017-12-04T18:13:33.428Z,20.63
2017-12-04T18:16:01.003Z,99.73
2017-12-04T18:18:28.524Z,23.37
2017-12-04T18:20:56.018Z,22.00
2017-12-04T18:23:23.719Z,9.47
2017-12-04T18:25:51.168Z,18.47
2017-12-04T18:28:19.404Z,19.13
2017-12-04T18:30:47.025Z,15.33
2017-12-04T18:33:14.466Z,21.90
2017-12-04T18:35:42.792Z,24.20
2017-12-04T18:38:10.285Z,10.40
2017-12-04T18:40:37.772Z,17.90
2017-12-04T18:43:05.305Z,14.33
2017-12-04T18:45:34.085Z,15.37
2017-12-04T18:48:03.290Z,21.57
2017-12-04T18:50:30.763Z,20.97
2017-12-04T18:52:58.213Z,21.33
2017-12-04T18:55:25.717Z,27.30
2017-12-04T18:57:53.233Z,23.20
2017-12-04T19:00:21.596Z,11.60
2017-12-04T19:02:50.150Z,22.60
2017-12-04T19:05:19.263Z,32.23
2017-12-04T19:07:47.505Z,15.77
2017-12-04T19:10:15.026Z,12.40
2017-12-04T19:12:43.323Z,23.40
2017-12-04T19:15:10.834Z,19.93
2017-12-04T19:17:38.384Z,18.93
2017-12-04T19:20:05.906Z,22.10
2017-12-04T19:22:33.688Z,19.87
2017-12-04T19:25:01.255Z,18.70
2017-12-04T19:27:28.723Z,12.87
2017-12-04T19:29:57.212Z,17.30
2017-12-04T19:32:24.639Z,19.20
2017-12-04T19:34:52.165Z,21.80
2017-12-04T19:37:19.654Z,22.60
2017-12-04T19:39:47.891Z,30.83
2017-12-04T19:42:15.445Z,17.63
2017-12-04T19:44:42.870Z,14.37
2017-12-04T19:47:10.383Z,15.40
2017-12-04T19:49:37.997Z,14.83
2017-12-04T19:52:06.274Z,13.40
2017-12-04T19:54:34.553Z,12.80
2017-12-04T19:57:02.784Z,17.37
2017-12-04T19:59:30.267Z,18.23
2017-12-04T20:01:57.744Z,11.70
2017-12-04T20:04:25.993Z,14.13
2017-12-04T20:06:53.511Z,11.07
2017-12-04T20:09:20.981Z,26.27
2017-12-04T20:11:48.443Z,23.47
2017-12-04T20:14:15.969Z,10.43
2017-12-04T20:16:43.480Z,16.83
2017-12-04T20:19:11.040Z,18.60
2017-12-04T20:21:38.515Z,24.27
2017-12-04T20:24:06.095Z,21.93
2017-12-04T20:26:33.572Z,32.77
2017-12-04T20:29:01.136Z,22.17
2017-12-04T20:31:28.697Z,17.33
2017-12-04T20:33:56.189Z,16.23
2017-12-04T20:36:23.670Z,13.63
2017-12-04T20:38:51.159Z,20.47
2017-12-04T20:41:18.655Z,16.60
2017-12-04T20:43:46.138Z,21.53
2017-12-04T20:46:14.354Z,40.97
2017-12-04T20:48:41.833Z,36.20
2017-12-04T20:51:09.374Z,22.00
2017-12-04T20:53:36.851Z,23.67
2017-12-04T20:56:04.324Z,19.67
2017-12-04T20:58:31.828Z,19.43
2017-12-04T21:00:59.341Z,24.20
2017-12-04T21:03:26.826Z,23.77
2017-12-04T21:05:54.335Z,33.33
2017-12-04T21:08:22.602Z,20.13
2017-12-04T21:10:50.089Z,23.33
2017-12-04T21:13:17.528Z,17.77
2017-12-04T21:15:45.744Z,22.90
2017-12-04T21:18:13.310Z,14.93
2017-12-04T21:20:41.552Z,16.47
2017-12-04T21:23:09.276Z,16.40
2017-12-04T21:25:37.498Z,23.23
2017-12-04T21:28:04.963Z,24.20
2017-12-04T21:30:32.508Z,16.33
2017-12-04T21:32:59.932Z,19.63
2017-12-04T21:35:27.400Z,23.77
2017-12-04T21:37:54.952Z,34.93
2017-12-04T21:40:22.427Z,21.23
2017-12-04T21:42:49.945Z,37.00
2017-12-04T21:45:18.429Z,16.17
2017-12-04T21:47:46.653Z,34.63
2017-12-04T21:50:14.243Z,27.87
2017-12-04T21:52:41.720Z,23.10
2017-12-04T21:55:09.168Z,20.97
2017-12-04T21:57:36.639Z,21.73
2017-12-04T22:00:04.080Z,17.17
2017-12-04T22:02:31.597Z,23.77
2017-12-04T22:04:59.906Z,31.47
2017-12-04T22:07:27.407Z,25.90
2017-12-04T22:09:54.880Z,17.03
2017-12-04T22:12:22.433Z,28.77
2017-12-04T22:14:49.904Z,37.17
2017-12-04T22:17:17.353Z,17.40
2017-12-04T22:19:44.879Z,24.83
2017-12-04T22:22:12.391Z,16.30
2017-12-04T22:24:39.908Z,20.73
2017-12-04T22:27:07.362Z,17.13
2017-12-04T22:29:34.834Z,13.03
2017-12-04T22:32:02.296Z,16.73
2017-12-04T22:34:29.818Z,18.40
2017-12-04T22:36:58.076Z,34.53
2017-12-04T22:39:25.543Z,22.63
2017-12-04T22:41:53.063Z,36.67
2017-12-04T22:44:21.284Z,19.07
2017-12-04T22:46:48.765Z,35.20
2017-12-04T22:49:16.280Z,35.10
2017-12-04T22:51:43.801Z,33.47
2017-12-04T22:54:12.066Z,23.00
2017-12-04T22:56:39.531Z,22.30
2017-12-04T22:59:07.058Z,17.17
2017-12-04T23:01:34.527Z,19.27
2017-12-04T23:04:01.960Z,25.33
2017-12-04T23:06:30.333Z,25.27
2017-12-04T23:08:57.798Z,18.50
2017-12-04T23:11:25.293Z,18.60
2017-12-04T23:13:52.750Z,23.87
2017-12-04T23:16:20.212Z,23.63
2017-12-04T23:18:47.714Z,22.90
2017-12-04T23:21:15.209Z,20.37
2017-12-04T23:23:42.686Z,26.40
2017-12-04T23:26:10.133Z,24.53
2017-12-04T23:28:37.702Z,46.13
2017-12-04T23:31:05.232Z,31.87
2017-12-04T23:33:33.467Z,28.70
2017-12-04T23:36:01.103Z,43.50
2017-12-04T23:38:28.497Z,53.23
2017-12-04T23:40:55.954Z,34.13
2017-12-04T23:43:23.486Z,37.63
2017-12-04T23:45:50.990Z,44.90
2017-12-04T23:48:18.457Z,38.33
2017-12-04T23:50:45.903Z,33.50
2017-12-04T23:53:13.390Z,25.33
2017-12-04T23:55:40.852Z,33.90
2017-12-04T23:58:08.386Z,34.67
